Time;durP1;ratioP1;P1;durP2;ratioP2;P2;SDS_P1;SDS_P2;PMS_P1;PMS_P2;Temp;Humidity;BMP_temperature;BMP_pressure;BME280_temperature;BME280_humidity;BME280_pressure;Samples;Min_cycle;Max_cycle;Signal;HPM_P1;HPM_P2
2022/07/13 00:01:56;;;;;;;14.27;7.07;;;28.60;52.90;;;;;;5002750;28;20650;-93
2022/07/13 00:04:23;;;;;;;10.23;6.43;;;28.60;53.00;;;;;;4999866;28;20229;-94
2022/07/13 00:06:50;;;;;;;10.30;6.20;;;28.60;52.90;;;;;;5010691;28;20243;-93
2022/07/13 00:15:00;;;;;;;13.07;6.83;;;28.50;53.30;;;;;;5029756;22;20305;-94
2022/07/13 00:17:30;;;;;;;17.80;8.40;;;28.40;53.30;;;;;;5009648;28;20574;-94
2022/07/13 00:19:58;;;;;;;10.63;5.53;;;28.40;53.50;;;;;;5010976;28;20205;-93
2022/07/13 00:22:26;;;;;;;13.33;7.60;;;28.30;53.30;;;;;;5009947;28;20256;-93
2022/07/13 00:28:04;;;;;;;12.33;7.23;;;28.20;53.70;;;;;;4985268;28;20222;-93
2022/07/13 00:30:31;;;;;;;10.67;6.73;;;28.10;53.40;;;;;;4989979;28;20293;-95
2022/07/13 00:33:07;;;;;;;9.70;6.60;;;28.00;53.30;;;;;;4989615;28;20260;-94
2022/07/13 00:35:34;;;;;;;11.70;6.17;;;28.00;53.80;;;;;;4991859;28;20694;-93
2022/07/13 00:38:07;;;;;;;15.40;8.20;;;28.00;53.50;;;;;;4998840;28;20222;-93
2022/07/13 00:43:18;;;;;;;15.33;8.43;;;27.90;54.10;;;;;;5219591;22;20360;-91
2022/07/13 00:45:47;;;;;;;9.93;6.77;;;27.80;53.70;;;;;;5010815;28;20237;-92
2022/07/13 00:51:30;;;;;;;11.37;7.27;;;27.80;54.20;;;;;;5036595;22;20276;-93
2022/07/13 00:53:58;;;;;;;10.40;6.80;;;27.80;54.20;;;;;;4991815;28;20260;-93
2022/07/13 01:05:08;;;;;;;11.63;8.07;;;27.60;54.00;;;;;;5007709;22;20724;-92
2022/07/13 01:08:25;;;;;;;12.90;8.07;;;27.60;54.10;;;;;;4986749;28;20202;-93
2022/07/13 01:10:55;;;;;;;13.87;9.07;;;27.60;54.40;;;;;;4998459;28;20229;-93
2022/07/13 01:13:23;;;;;;;11.77;7.83;;;27.50;54.00;;;;;;4995551;28;20226;-92
2022/07/13 01:15:50;;;;;;;12.63;8.63;;;27.50;54.00;;;;;;4990161;28;20202;-93
2022/07/13 01:18:36;;;;;;;15.17;8.43;;;27.50;54.10;;;;;;5004167;28;20260;-93
2022/07/13 01:21:04;;;;;;;12.27;8.00;;;27.50;54.50;;;;;;4977121;28;20214;-92
2022/07/13 01:23:33;;;;;;;11.80;8.63;;;27.50;54.30;;;;;;4992631;28;20552;-93
2022/07/13 01:32:00;;;;;;;12.50;8.37;;;27.40;54.20;;;;;;4970476;28;20265;-92
2022/07/13 01:34:27;;;;;;;15.67;8.93;;;27.40;54.30;;;;;;4986997;28;20659;-92
2022/07/13 01:36:56;;;;;;;13.47;9.57;;;27.40;54.10;;;;;;5019349;22;20237;-92
2022/07/13 01:39:29;;;;;;;15.53;9.93;;;27.40;54.30;;;;;;5017093;28;20607;-91
2022/07/13 01:41:57;;;;;;;14.70;9.57;;;27.40;54.20;;;;;;5026620;28;20200;-91
2022/07/13 01:44:24;;;;;;;16.23;10.43;;;27.40;54.10;;;;;;5026562;28;20276;-91
2022/07/13 01:46:52;;;;;;;12.53;9.83;;;27.40;54.10;;;;;;5018328;28;20300;-92
2022/07/13 01:51:55;;;;;;;17.00;10.50;;;27.30;54.00;;;;;;5092093;22;20248;-91
2022/07/13 01:54:22;;;;;;;16.70;10.93;;;27.30;53.90;;;;;;5013470;28;20205;-92
2022/07/13 01:56:50;;;;;;;16.87;10.63;;;27.40;54.00;;;;;;5021918;28;20213;-93
2022/07/13 01:59:17;;;;;;;15.27;10.33;;;27.40;54.00;;;;;;5027386;28;20620;-92
2022/07/13 02:01:57;;;;;;;17.77;11.33;;;27.40;54.00;;;;;;5024739;28;20208;-92
2022/07/13 02:04:24;;;;;;;16.77;10.80;;;27.40;54.10;;;;;;4990323;28;20312;-93
2022/07/13 02:06:51;;;;;;;12.60;9.80;;;27.40;54.00;;;;;;4999576;28;20205;-94
2022/07/13 02:12:05;;;;;;;12.53;9.50;;;27.40;54.50;;;;;;5022265;28;20232;-95
2022/07/13 02:14:33;;;;;;;12.20;9.17;;;27.40;54.40;;;;;;5030355;28;20208;-94
2022/07/13 02:17:06;;;;;;;19.73;11.90;;;27.50;54.50;;;;;;5031289;28;20201;-91
2022/07/13 02:19:33;;;;;;;15.97;10.63;;;27.40;54.60;;;;;;5036024;28;20197;-93
2022/07/13 02:22:04;;;;;;;11.50;8.17;;;27.50;54.50;;;;;;5031202;28;20309;-92
2022/07/13 02:24:37;;;;;;;14.90;9.80;;;27.50;54.00;;;;;;5030938;28;21918;-92
2022/07/13 02:29:54;;;;;;;16.27;9.83;;;27.50;54.00;;;;;;5015349;28;20213;-94
2022/07/13 02:32:21;;;;;;;12.40;8.70;;;27.50;53.80;;;;;;5039263;28;20559;-92
2022/07/13 02:34:49;;;;;;;14.93;9.13;;;27.50;53.70;;;;;;5051167;28;20197;-91
2022/07/13 02:37:16;;;;;;;14.37;8.97;;;27.50;53.70;;;;;;5043276;28;20205;-91
2022/07/13 02:39:46;;;;;;;16.00;9.90;;;27.60;53.60;;;;;;5048177;28;20227;-92
2022/07/13 02:42:14;;;;;;;18.77;10.57;;;27.60;53.40;;;;;;5045025;28;20200;-93
2022/07/13 02:49:58;;;;;;;8.80;6.93;;;27.60;53.20;;;;;;5018962;28;20213;-93
2022/07/13 02:52:25;;;;;;;18.83;9.73;;;27.60;53.00;;;;;;5002610;28;20198;-93
2022/07/13 02:55:10;;;;;;;9.63;6.63;;;27.60;53.00;;;;;;4994839;28;20212;-93
2022/07/13 03:00:47;;;;;;;13.50;7.43;;;27.60;53.60;;;;;;5028971;22;20737;-93
2022/07/13 03:03:15;;;;;;;10.20;6.67;;;27.60;53.00;;;;;;5011976;28;20206;-96
2022/07/13 03:05:44;;;;;;;9.83;6.70;;;27.60;53.00;;;;;;5029460;28;20689;-93
2022/07/13 03:08:39;;;;;;;13.60;6.57;;;27.60;53.10;;;;;;5017011;28;20450;-93
2022/07/13 03:11:06;;;;;;;14.53;8.20;;;27.50;53.00;;;;;;5012211;28;20202;-92
2022/07/13 03:13:35;;;;;;;11.70;7.03;;;27.60;53.10;;;;;;5025176;28;20229;-93
2022/07/13 03:18:51;;;;;;;10.97;6.50;;;27.50;53.00;;;;;;5033001;22;20236;-94
2022/07/13 03:21:19;;;;;;;11.53;6.27;;;27.50;53.20;;;;;;5010165;28;20198;-95
2022/07/13 03:23:50;;;;;;;10.17;6.53;;;27.50;53.00;;;;;;5011500;28;20723;-92
2022/07/13 03:26:32;;;;;;;;;;;;;;;;;;;;;
2022/07/13 03:29:00;;;;;;;12.07;6.97;;;27.60;53.00;;;;;;5040806;22;20235;-94
2022/07/13 03:31:27;;;;;;;13.10;7.27;;;27.60;53.10;;;;;;5050497;28;20254;-94
2022/07/13 03:33:56;;;;;;;12.00;6.40;;;27.50;53.00;;;;;;5049842;28;20204;-94
2022/07/13 03:36:38;;;;;;;8.37;5.07;;;27.60;52.80;;;;;;5050607;28;20299;-94
2022/07/13 03:39:06;;;;;;;10.23;6.23;;;27.50;52.80;;;;;;5048591;28;20261;-93
2022/07/13 03:41:33;;;;;;;13.77;7.07;;;27.50;52.80;;;;;;5050991;28;20242;-95
2022/07/13 03:44:00;;;;;;;7.93;4.57;;;27.50;52.60;;;;;;5050889;28;20204;-94
2022/07/13 03:46:27;;;;;;;8.80;4.07;;;27.50;52.60;;;;;;5052265;28;20235;-96
2022/07/13 03:48:56;;;;;;;11.53;5.03;;;27.50;52.60;;;;;;5033409;22;20270;-92
2022/07/13 03:51:23;;;;;;;11.00;4.47;;;27.50;52.60;;;;;;4993192;28;20203;-95
2022/07/13 03:53:51;;;;;;;7.37;4.20;;;27.50;52.50;;;;;;5007105;28;20198;-94
2022/07/13 03:59:24;;;;;;;11.43;5.23;;;27.50;52.60;;;;;;5005922;22;20225;-96
2022/07/13 04:01:51;;;;;;;13.07;5.37;;;27.40;52.40;;;;;;5034837;28;20208;-93
2022/07/13 04:04:20;;;;;;;11.87;5.57;;;27.40;52.40;;;;;;5039942;28;20200;-93
2022/07/13 04:06:47;;;;;;;11.37;4.50;;;27.40;52.50;;;;;;5068512;28;20307;-95
2022/07/13 04:09:15;;;;;;;8.80;4.07;;;27.40;52.40;;;;;;5052496;28;20398;-95
2022/07/13 04:11:51;;;;;;;6.30;3.60;;;27.30;52.50;;;;;;5038226;28;20204;-94
2022/07/13 04:14:28;;;;;;;8.17;4.07;;;27.40;52.60;;;;;;5054867;28;20204;-95
2022/07/13 04:16:55;;;;;;;6.57;3.37;;;27.30;52.60;;;;;;5056536;28;20580;-94
2022/07/13 04:19:40;;;;;;;;;;;;;;;;;;;;;
2022/07/13 04:22:09;;;;;;;8.43;4.03;;;27.30;52.60;;;;;;5032018;28;20220;-94
2022/07/13 04:24:36;;;;;;;7.07;4.03;;;27.30;52.60;;;;;;5035260;22;20244;-96
2022/07/13 04:27:50;;;;;;;6.47;3.43;;;27.20;52.60;;;;;;5011088;28;20701;-93
2022/07/13 04:33:05;;;;;;;7.90;3.50;;;27.20;52.70;;;;;;5068876;22;20283;-93
2022/07/13 04:35:34;;;;;;;7.50;3.60;;;27.20;52.70;;;;;;5047926;28;20258;-93
2022/07/13 04:38:01;;;;;;;7.43;3.10;;;27.20;52.80;;;;;;5050566;28;20289;-95
2022/07/13 04:40:58;;;;;;;14.67;5.73;;;27.20;53.00;;;;;;5035476;28;20208;-94
2022/07/13 04:43:27;;;;;;;10.07;4.17;;;27.10;53.10;;;;;;5046137;28;20215;-93
2022/07/13 04:45:54;;;;;;;7.43;3.27;;;27.20;53.20;;;;;;5048706;28;20356;-92
2022/07/13 04:48:24;;;;;;;9.67;4.37;;;27.20;53.10;;;;;;5043420;28;20258;-93
2022/07/13 04:51:22;;;;;;;9.27;3.47;;;27.10;53.30;;;;;;5040280;28;20210;-93
2022/07/13 04:53:50;;;;;;;7.40;3.83;;;27.10;53.40;;;;;;5044844;28;20278;-93
2022/07/13 04:56:17;;;;;;;8.40;3.43;;;27.10;53.40;;;;;;5062426;28;20272;-93
2022/07/13 04:59:09;;;;;;;5.30;2.33;;;27.10;53.40;;;;;;5072638;28;20196;-90
2022/07/13 05:01:36;;;;;;;14.90;5.57;;;27.10;54.00;;;;;;5041679;28;20248;-90
2022/07/13 05:04:08;;;;;;;7.60;3.23;;;27.10;53.80;;;;;;5050165;28;20722;-90
2022/07/13 05:06:37;;;;;;;9.93;4.43;;;27.10;54.00;;;;;;5047798;28;20318;-89
2022/07/13 05:09:05;;;;;;;7.93;3.40;;;27.10;54.00;;;;;;5047918;28;20215;-90
2022/07/13 05:11:35;;;;;;;14.50;4.73;;;27.10;54.20;;;;;;5046894;28;20270;-89
2022/07/13 05:14:03;;;;;;;8.17;3.73;;;27.10;54.20;;;;;;5048660;28;20208;-90
2022/07/13 05:16:31;;;;;;;10.40;4.30;;;27.00;54.20;;;;;;5062306;28;20201;-87
2022/07/13 05:19:01;;;;;;;7.97;3.67;;;27.10;54.40;;;;;;5062619;28;20223;-87
2022/07/13 05:21:29;;;;;;;9.20;3.90;;;27.10;54.60;;;;;;5055248;28;20262;-90
2022/07/13 05:23:58;;;;;;;11.03;4.40;;;27.10;54.60;;;;;;5030020;28;20228;-92
2022/07/13 05:26:25;;;;;;;12.33;4.47;;;27.10;54.60;;;;;;5042032;28;20326;-89
2022/07/13 05:28:52;;;;;;;9.20;3.60;;;27.00;54.60;;;;;;5046130;28;20228;-89
2022/07/13 05:31:19;;;;;;;9.70;4.30;;;27.10;54.70;;;;;;5045009;28;20590;-91
2022/07/13 05:33:46;;;;;;;6.80;3.33;;;27.10;54.80;;;;;;5038295;28;20633;-91
2022/07/13 05:36:13;;;;;;;11.43;4.93;;;27.10;55.00;;;;;;5033559;28;20273;-90
2022/07/13 05:39:04;;;;;;;9.93;3.93;;;27.10;54.80;;;;;;5040900;28;20255;-88
2022/07/13 05:41:44;;;;;;;10.33;3.63;;;27.20;55.00;;;;;;5049021;28;20200;-91
2022/07/13 05:44:13;;;;;;;11.47;5.17;;;27.10;55.20;;;;;;5038462;28;20224;-90
2022/07/13 05:46:40;;;;;;;11.07;4.40;;;27.20;55.10;;;;;;5033257;28;20216;-90
2022/07/13 05:49:09;;;;;;;10.03;3.67;;;27.20;55.10;;;;;;5044033;28;20257;-91
2022/07/13 05:51:36;;;;;;;11.27;5.13;;;27.20;55.20;;;;;;5043787;28;20192;-92
2022/07/13 05:54:04;;;;;;;8.93;3.90;;;27.20;55.30;;;;;;5028282;28;20270;-91
2022/07/13 05:56:33;;;;;;;10.60;4.57;;;27.30;55.40;;;;;;5030341;28;20248;-92
2022/07/13 05:59:08;;;;;;;9.87;4.13;;;27.20;55.30;;;;;;5047486;28;20213;-91
2022/07/13 06:01:35;;;;;;;14.17;5.13;;;27.30;55.80;;;;;;5032427;28;20212;-91
2022/07/13 06:04:04;;;;;;;8.60;3.90;;;27.30;55.60;;;;;;5047815;28;20227;-91
2022/07/13 06:06:32;;;;;;;10.03;3.90;;;27.30;55.60;;;;;;5034664;28;20228;-92
2022/07/13 06:08:59;;;;;;;12.33;4.70;;;27.30;55.50;;;;;;5027548;28;20204;-92
2022/07/13 06:11:26;;;;;;;11.77;4.77;;;27.30;55.60;;;;;;5046844;28;20283;-92
2022/07/13 06:13:53;;;;;;;14.70;5.40;;;27.30;55.80;;;;;;5027002;28;20259;-92
2022/07/13 06:16:21;;;;;;;12.30;4.80;;;27.40;55.80;;;;;;5036841;28;20293;-94
2022/07/13 06:18:49;;;;;;;8.23;3.83;;;27.40;55.80;;;;;;5028501;28;20212;-92
2022/07/13 06:21:16;;;;;;;16.17;6.60;;;27.40;55.80;;;;;;5147304;22;20275;-89
2022/07/13 06:24:01;;;;;;;12.57;4.23;;;27.50;55.80;;;;;;5001429;28;20251;-91
2022/07/13 06:26:50;;;;;;;8.97;3.93;;;27.50;55.80;;;;;;5007576;28;20221;-93
2022/07/13 06:32:08;;;;;;;10.47;4.07;;;27.50;55.60;;;;;;5006235;28;20209;-91
2022/07/13 06:40:22;;;;;;;8.90;3.83;;;27.60;55.50;;;;;;4989103;28;20415;-91
2022/07/13 06:42:55;;;;;;;8.87;3.37;;;27.60;55.50;;;;;;5011295;28;20202;-96
2022/07/13 06:45:31;;;;;;;6.87;3.20;;;27.70;55.60;;;;;;5012117;28;20230;-96
2022/07/13 06:48:05;;;;;;;7.23;3.30;;;27.70;55.40;;;;;;5010371;28;20228;-96
2022/07/13 06:50:33;;;;;;;5.73;3.10;;;27.70;55.50;;;;;;5013586;28;20215;-96
2022/07/13 06:53:25;;;;;;;5.03;3.27;;;27.70;55.30;;;;;;5019048;28;20252;-96
2022/07/13 06:55:54;;;;;;;11.23;4.53;;;27.80;55.50;;;;;;5004326;28;20212;-95
2022/07/13 06:58:22;;;;;;;16.03;6.57;;;27.80;55.40;;;;;;5006235;28;20209;-94
2022/07/13 07:00:51;;;;;;;7.33;3.97;;;27.80;55.40;;;;;;5014561;28;20208;-95
2022/07/13 07:03:20;;;;;;;13.33;5.13;;;27.80;55.50;;;;;;4995046;28;20210;-95
2022/07/13 07:05:48;;;;;;;6.80;3.30;;;27.80;55.40;;;;;;5025339;28;20209;-95
2022/07/13 07:08:21;;;;;;;8.63;3.87;;;27.80;55.30;;;;;;5027461;28;20232;-95
2022/07/13 07:10:48;;;;;;;7.00;3.20;;;27.80;55.30;;;;;;5016148;28;20199;-94
2022/07/13 07:13:15;;;;;;;8.07;3.97;;;27.80;55.30;;;;;;5013670;28;20210;-95
2022/07/13 07:15:43;;;;;;;7.07;2.80;;;27.90;55.20;;;;;;5013094;28;20209;-94
2022/07/13 07:18:13;;;;;;;9.40;4.50;;;27.90;55.20;;;;;;5011966;28;20217;-93
2022/07/13 07:20:41;;;;;;;6.97;2.93;;;27.90;55.20;;;;;;5010355;28;20232;-91
2022/07/13 07:23:08;;;;;;;10.23;3.80;;;27.90;55.00;;;;;;5005512;28;20225;-92
2022/07/13 07:25:37;;;;;;;7.77;3.57;;;28.00;55.20;;;;;;5011159;28;20281;-91
2022/07/13 07:28:06;;;;;;;9.40;4.23;;;28.00;55.40;;;;;;5010045;28;20275;-92
2022/07/13 07:30:34;;;;;;;9.17;3.30;;;28.00;55.00;;;;;;4991824;28;20230;-90
2022/07/13 07:33:02;;;;;;;9.30;4.10;;;28.00;54.80;;;;;;4992101;28;20202;-92
2022/07/13 07:35:45;;;;;;;11.80;4.63;;;28.10;54.90;;;;;;4991959;28;20213;-91
2022/07/13 07:38:14;;;;;;;10.37;4.73;;;28.10;55.20;;;;;;5002537;28;20214;-90
2022/07/13 07:40:41;;;;;;;17.47;6.77;;;28.10;55.10;;;;;;5025735;22;20237;-91
2022/07/13 07:45:55;;;;;;;9.43;4.07;;;28.20;55.00;;;;;;4998532;28;20653;-92
2022/07/13 07:48:37;;;;;;;10.63;4.30;;;28.20;55.00;;;;;;5019874;28;20635;-91
2022/07/13 07:51:06;;;;;;;6.03;2.63;;;28.30;55.10;;;;;;5016873;28;20198;-91
2022/07/13 07:53:33;;;;;;;8.03;3.70;;;28.30;55.00;;;;;;5013597;28;20240;-92
2022/07/13 07:56:01;;;;;;;9.63;3.83;;;28.40;55.00;;;;;;5018193;28;20193;-91
2022/07/13 07:58:38;;;;;;;7.50;3.87;;;28.30;54.90;;;;;;5014767;28;20803;-91
2022/07/13 08:01:05;;;;;;;8.37;3.63;;;28.40;54.80;;;;;;5023879;28;20220;-93
2022/07/13 08:03:32;;;;;;;9.97;4.53;;;28.40;54.80;;;;;;5017295;28;20205;-92
2022/07/13 08:06:02;;;;;;;7.27;3.80;;;28.40;55.00;;;;;;5017977;28;20221;-92
2022/07/13 08:08:32;;;;;;;8.97;4.07;;;28.40;54.70;;;;;;5009728;28;20329;-92
2022/07/13 08:11:01;;;;;;;9.53;3.97;;;28.50;55.10;;;;;;5010862;28;20714;-92
2022/07/13 08:14:29;;;;;;;12.13;5.67;;;28.50;55.20;;;;;;5010184;28;20244;-92
2022/07/13 08:19:47;;;;;;;11.10;4.37;;;28.70;55.00;;;;;;5010772;22;20273;-91
2022/07/13 08:22:14;;;;;;;10.37;4.70;;;28.70;54.80;;;;;;5009311;28;20618;-90
2022/07/13 08:24:42;;;;;;;6.50;3.63;;;28.80;54.90;;;;;;5010034;28;20197;-90
2022/07/13 08:27:09;;;;;;;7.37;4.00;;;28.90;54.90;;;;;;5010144;28;20229;-91
2022/07/13 08:29:37;;;;;;;11.00;4.70;;;29.00;54.70;;;;;;5009434;28;20263;-91
2022/07/13 08:32:10;;;;;;;9.30;4.60;;;29.00;54.50;;;;;;5010250;28;20301;-90
2022/07/13 08:40:21;;;;;;;10.53;4.30;;;29.20;54.10;;;;;;4984559;28;20206;-91
2022/07/13 08:43:00;;;;;;;7.70;3.70;;;29.30;54.40;;;;;;5005731;28;20259;-92
2022/07/13 08:45:41;;;;;;;9.73;5.03;;;29.40;54.40;;;;;;5009421;28;20205;-90
2022/07/13 08:48:51;;;;;;;7.97;4.03;;;29.50;54.20;;;;;;5009501;28;20240;-90
2022/07/13 08:51:19;;;;;;;9.63;4.03;;;29.60;53.60;;;;;;4974060;28;20307;-91
2022/07/13 08:53:46;;;;;;;8.40;3.90;;;29.80;53.70;;;;;;4971329;28;20264;-91
2022/07/13 08:56:15;;;;;;;7.03;4.07;;;29.90;53.70;;;;;;4987899;28;20213;-92
2022/07/13 08:58:42;;;;;;;8.90;4.47;;;30.10;53.30;;;;;;5005073;28;20202;-91
2022/07/13 09:01:09;;;;;;;6.90;3.90;;;30.30;53.30;;;;;;5010022;28;20223;-90
2022/07/13 09:03:39;;;;;;;10.63;4.63;;;30.40;52.90;;;;;;5008859;28;20209;-91
2022/07/13 09:06:06;;;;;;;6.67;4.03;;;30.50;52.60;;;;;;5009038;28;20303;-92
2022/07/13 09:08:42;;;;;;;7.33;3.83;;;30.70;52.40;;;;;;5008415;28;20287;-91
2022/07/13 09:11:09;;;;;;;8.27;3.95;;;30.80;52.00;;;;;;5008838;28;20574;-91
2022/07/13 09:17:04;;;;;;;7.00;3.50;;;31.10;51.70;;;;;;5014306;28;20221;-94
2022/07/13 09:20:05;;;;;;;8.93;4.63;;;31.30;51.70;;;;;;5009951;28;20247;-90
2022/07/13 09:22:34;;;;;;;8.38;4.50;;;31.40;51.20;;;;;;5007304;28;20218;-91
2022/07/13 09:25:02;;;;;;;9.05;4.00;;;31.60;51.40;;;;;;4990306;28;20198;-90
2022/07/13 09:27:47;;;;;;;6.65;3.88;;;31.70;51.00;;;;;;4989439;28;20230;-91
2022/07/13 09:30:23;;;;;;;6.25;3.58;;;31.80;50.30;;;;;;4988372;28;20225;-91
2022/07/13 09:32:53;;;;;;;10.38;5.15;;;31.90;50.00;;;;;;4990961;28;20212;-91
2022/07/13 09:35:21;;;;;;;6.22;3.58;;;32.00;49.90;;;;;;5007979;28;20205;-91
2022/07/13 09:37:48;;;;;;;9.40;4.50;;;32.10;50.50;;;;;;5001624;28;20579;-91
2022/07/13 09:40:27;;;;;;;8.18;3.80;;;32.30;50.20;;;;;;5007030;28;20244;-93
2022/07/13 09:48:31;;;;;;;6.03;3.22;;;32.50;49.40;;;;;;5007925;28;20316;-92
2022/07/13 09:50:59;;;;;;;6.82;3.55;;;32.60;48.80;;;;;;5007876;28;20301;-92
2022/07/13 09:53:28;;;;;;;7.82;3.45;;;32.70;48.80;;;;;;5007754;28;20372;-91
2022/07/13 09:55:57;;;;;;;7.95;4.18;;;32.80;48.40;;;;;;5008341;28;20216;-92
2022/07/13 09:58:31;;;;;;;7.97;4.18;;;32.80;47.90;;;;;;5027411;28;20947;-90
2022/07/13 10:00:59;;;;;;;7.95;4.15;;;32.90;47.30;;;;;;5022590;28;20740;-90
2022/07/13 10:03:29;;;;;;;11.75;4.82;;;33.00;48.10;;;;;;4995999;28;20210;-91
2022/07/13 10:06:07;;;;;;;9.40;3.83;;;33.00;47.90;;;;;;4997005;28;20269;-91
2022/07/13 10:08:53;;;;;;;6.63;4.00;;;33.10;47.30;;;;;;4997324;28;20336;-90
2022/07/13 10:11:33;;;;;;;7.10;3.55;;;33.10;47.70;;;;;;5007578;22;20237;-89
2022/07/13 10:14:00;;;;;;;8.15;3.60;;;33.10;47.20;;;;;;4996106;28;20201;-89
2022/07/13 10:16:29;;;;;;;7.55;3.55;;;33.20;47.20;;;;;;4997423;28;20256;-93
2022/07/13 10:19:03;;;;;;;6.80;3.72;;;33.20;46.50;;;;;;5013614;28;20205;-91
2022/07/13 10:21:47;;;;;;;3.47;2.30;;;33.20;45.90;;;;;;5009491;28;20212;-90
2022/07/13 10:24:15;;;;;;;5.90;3.47;;;33.30;45.20;;;;;;5005167;28;20197;-90
2022/07/13 10:26:43;;;;;;;6.97;3.40;;;33.30;45.90;;;;;;5006003;28;20244;-90
2022/07/13 10:29:12;;;;;;;5.68;3.03;;;33.30;45.70;;;;;;5005942;28;20209;-91
2022/07/13 10:31:46;;;;;;;8.00;4.25;;;33.30;45.70;;;;;;5009882;28;20201;-90
2022/07/13 10:34:14;;;;;;;6.07;3.47;;;33.40;45.70;;;;;;5016503;28;20261;-92
2022/07/13 10:37:00;;;;;;;7.03;3.53;;;33.40;45.60;;;;;;5022461;28;20210;-88
2022/07/13 10:39:30;;;;;;;5.57;3.10;;;33.40;45.30;;;;;;5023530;28;20210;-95
2022/07/13 10:42:00;;;;;;;6.20;3.67;;;33.40;46.10;;;;;;5014303;28;20210;-90
2022/07/13 10:44:35;;;;;;;7.72;3.85;;;33.50;45.50;;;;;;5012249;28;20197;-90
2022/07/13 10:47:03;;;;;;;5.57;3.40;;;33.50;44.70;;;;;;5013766;28;20258;-90
2022/07/13 10:49:47;;;;;;;8.05;4.43;;;33.50;45.20;;;;;;5007607;28;20555;-92
2022/07/13 10:52:53;;;;;;;8.43;4.53;;;33.60;45.10;;;;;;5006126;28;20585;-91
2022/07/13 10:55:37;;;;;;;11.50;5.97;;;33.50;43.50;;;;;;5017776;22;20260;-93
2022/07/13 10:58:43;;;;;;;6.63;3.25;;;33.60;43.00;;;;;;5015794;22;20343;-92
2022/07/13 11:01:35;;;;;;;7.25;4.07;;;33.70;43.50;;;;;;5009897;28;20205;-94
2022/07/13 11:04:05;;;;;;;8.13;3.72;;;33.70;42.50;;;;;;5025419;28;20223;-90
2022/07/13 11:06:36;;;;;;;6.38;2.75;;;33.70;43.10;;;;;;5027324;28;20235;-92
2022/07/13 11:10:06;;;;;;;8.48;4.13;;;33.60;44.10;;;;;;5030626;28;20256;-91
2022/07/13 11:12:35;;;;;;;7.80;4.38;;;33.60;44.00;;;;;;5003805;22;20249;-91
2022/07/13 11:15:17;;;;;;;5.07;2.97;;;33.60;44.30;;;;;;5033638;28;20227;-90
2022/07/13 11:18:19;;;;;;;28.25;13.25;;;33.50;44.20;;;;;;5035745;22;21265;-91
2022/07/13 11:20:55;;;;;;;11.18;4.93;;;33.60;43.80;;;;;;5045720;28;20215;-94
2022/07/13 11:29:50;;;;;;;5.90;3.58;;;33.50;44.00;;;;;;5029172;22;20760;-91
2022/07/13 11:32:21;;;;;;;6.60;3.67;;;33.40;43.50;;;;;;5030478;28;20331;-90
2022/07/13 11:34:48;;;;;;;11.48;4.95;;;33.40;44.20;;;;;;5026259;28;20201;-90
2022/07/13 11:37:22;;;;;;;8.65;4.15;;;33.40;44.40;;;;;;5029501;28;20200;-92
2022/07/13 11:40:02;;;;;;;8.20;4.47;;;33.40;45.00;;;;;;5030184;28;20245;-91
2022/07/13 11:42:30;;;;;;;6.53;3.88;;;33.40;45.00;;;;;;5028657;28;20869;-91
2022/07/13 11:44:59;;;;;;;9.48;3.28;;;33.40;45.40;;;;;;5029692;28;20270;-90
2022/07/13 11:47:28;;;;;;;7.10;4.55;;;33.40;45.50;;;;;;5030238;28;20201;-92
2022/07/13 11:49:56;;;;;;;8.77;4.25;;;33.40;45.40;;;;;;5030517;28;20189;-92
2022/07/13 11:55:11;;;;;;;13.80;5.72;;;33.30;45.50;;;;;;5021882;28;20622;-92
2022/07/13 11:57:38;;;;;;;5.43;3.30;;;33.20;45.40;;;;;;5031922;28;20581;-95
2022/07/13 12:00:11;;;;;;;6.50;3.45;;;33.10;45.60;;;;;;5026373;28;20259;-90
2022/07/13 12:02:38;;;;;;;8.32;4.65;;;33.00;45.60;;;;;;5025220;28;20288;-91
2022/07/13 12:05:06;;;;;;;7.93;4.50;;;32.90;45.80;;;;;;5028850;28;20713;-92
2022/07/13 12:12:26;;;;;;;8.77;4.88;;;32.60;46.60;;;;;;5000044;22;20702;-91
2022/07/13 12:14:57;;;;;;;8.95;4.47;;;32.60;46.50;;;;;;4995749;28;20217;-91
2022/07/13 12:17:27;;;;;;;7.72;4.03;;;32.50;46.60;;;;;;4990253;28;20214;-91
2022/07/13 12:20:09;;;;;;;10.32;5.10;;;32.40;46.60;;;;;;4989040;28;20613;-91
2022/07/13 12:22:36;;;;;;;11.90;5.05;;;32.40;46.60;;;;;;4987522;28;20685;-90
2022/07/13 12:25:04;;;;;;;11.40;5.68;;;32.40;46.70;;;;;;4986050;28;20202;-90
2022/07/13 12:27:32;;;;;;;10.00;5.75;;;32.30;46.40;;;;;;4989441;28;20206;-91
2022/07/13 12:30:08;;;;;;;8.02;4.78;;;32.30;46.50;;;;;;4988120;28;20257;-90
2022/07/13 12:32:58;;;;;;;9.45;4.55;;;32.30;46.50;;;;;;4981676;28;20241;-91
2022/07/13 12:35:27;;;;;;;8.25;4.63;;;32.30;47.30;;;;;;4989513;28;20242;-90
2022/07/13 12:37:56;;;;;;;6.70;4.30;;;32.30;46.90;;;;;;4988924;28;20245;-89
2022/07/13 12:40:40;;;;;;;9.52;5.32;;;32.30;47.20;;;;;;4998462;28;20245;-90
2022/07/13 12:43:17;;;;;;;12.15;5.90;;;32.40;46.90;;;;;;4998302;28;20662;-91
2022/07/13 12:45:46;;;;;;;12.07;5.45;;;32.40;46.60;;;;;;5006054;28;20252;-91
2022/07/13 12:48:16;;;;;;;12.77;5.78;;;32.40;46.70;;;;;;5004078;28;20257;-91
2022/07/13 12:50:54;;;;;;;8.57;4.53;;;32.50;46.90;;;;;;5006029;28;21034;-91
2022/07/13 12:53:21;;;;;;;8.50;4.47;;;32.50;46.70;;;;;;5005783;28;20198;-89
2022/07/13 12:55:55;;;;;;;5.93;3.97;;;32.60;46.70;;;;;;5012632;28;20205;-91
2022/07/13 12:58:40;;;;;;;7.63;4.28;;;32.70;46.20;;;;;;5008293;28;20212;-93
2022/07/13 13:01:08;;;;;;;9.90;4.22;;;32.80;46.00;;;;;;5003548;28;20741;-90
2022/07/13 13:03:37;;;;;;;9.30;5.05;;;32.80;45.90;;;;;;4992440;28;20258;-90
2022/07/13 13:06:04;;;;;;;7.22;3.50;;;32.90;45.60;;;;;;5003301;28;20639;-90
2022/07/13 13:08:32;;;;;;;6.88;4.13;;;33.00;45.70;;;;;;5006154;28;20230;-90
2022/07/13 13:10:58;;;;;;;8.85;4.18;;;33.00;45.60;;;;;;5018022;28;20198;-92
2022/07/13 13:13:28;;;;;;;7.75;4.38;;;33.10;45.20;;;;;;5014901;28;20555;-91
2022/07/13 13:16:01;;;;;;;3.67;2.60;;;33.10;45.20;;;;;;5012079;28;20210;-92
2022/07/13 13:18:32;;;;;;;4.43;2.90;;;33.10;44.70;;;;;;5008328;28;20540;-92
2022/07/13 13:21:01;;;;;;;4.05;2.75;;;33.10;44.60;;;;;;5002839;28;20320;-92
2022/07/13 13:23:28;;;;;;;5.45;3.20;;;33.10;44.50;;;;;;4997736;28;20206;-91
2022/07/13 13:25:55;;;;;;;6.25;3.78;;;33.10;44.40;;;;;;5011644;28;20209;-91
2022/07/13 13:28:23;;;;;;;5.47;3.50;;;33.00;44.20;;;;;;4996254;28;20230;-91
2022/07/13 13:30:50;;;;;;;5.35;3.22;;;32.90;44.20;;;;;;4994194;28;20209;-92
2022/07/13 13:33:18;;;;;;;6.25;3.20;;;32.80;44.20;;;;;;4995628;28;20214;-90
2022/07/13 13:35:49;;;;;;;6.90;3.17;;;32.80;44.50;;;;;;4993277;28;20201;-92
2022/07/13 13:38:17;;;;;;;8.20;4.38;;;32.70;44.60;;;;;;5004901;28;20749;-94
2022/07/13 13:40:44;;;;;;;7.30;3.78;;;32.60;44.60;;;;;;5025972;22;20348;-91
2022/07/13 13:43:12;;;;;;;10.82;4.60;;;32.50;44.90;;;;;;5015951;28;20205;-92
2022/07/13 13:45:39;;;;;;;6.43;3.58;;;32.40;45.30;;;;;;5018006;28;20210;-91
2022/07/13 13:48:09;;;;;;;9.40;4.25;;;32.30;45.30;;;;;;5027597;28;20224;-90
2022/07/13 13:50:36;;;;;;;9.10;4.43;;;32.20;45.10;;;;;;5005366;28;20255;-90
2022/07/13 13:53:03;;;;;;;5.82;3.65;;;32.10;45.10;;;;;;5007321;28;20290;-90
2022/07/13 13:56:17;;;;;;;9.30;4.18;;;32.10;45.80;;;;;;5014532;28;20728;-91
2022/07/13 13:58:45;;;;;;;7.28;3.50;;;32.10;45.80;;;;;;4976919;28;20225;-92
2022/07/13 14:01:12;;;;;;;10.55;4.85;;;32.10;45.80;;;;;;5015497;28;20399;-92
2022/07/13 14:03:39;;;;;;;9.00;4.50;;;32.10;45.80;;;;;;5023631;28;20216;-91
2022/07/13 14:06:07;;;;;;;8.88;3.95;;;32.20;45.80;;;;;;5009714;28;20212;-91
2022/07/13 14:08:46;;;;;;;7.40;3.75;;;32.20;45.80;;;;;;5020761;28;20264;-91
2022/07/13 14:11:17;;;;;;;9.63;5.00;;;32.30;45.80;;;;;;5021292;28;20223;-91
2022/07/13 14:13:48;;;;;;;8.88;4.32;;;32.30;45.50;;;;;;5030961;28;20209;-94
2022/07/13 14:16:15;;;;;;;8.90;4.53;;;32.40;45.60;;;;;;5034423;22;20236;-93
2022/07/13 14:21:23;;;;;;;9.65;3.95;;;32.50;45.10;;;;;;4991098;28;20308;-93
2022/07/13 14:23:50;;;;;;;7.80;3.38;;;32.50;44.90;;;;;;5002895;28;20259;-93
2022/07/13 14:26:19;;;;;;;6.63;3.58;;;32.60;44.90;;;;;;5010096;28;20205;-91
2022/07/13 14:28:46;;;;;;;9.00;3.55;;;32.60;44.80;;;;;;5002261;28;20228;-92
2022/07/13 14:31:13;;;;;;;8.25;4.25;;;32.60;44.70;;;;;;5010805;28;20249;-90
2022/07/13 14:33:40;;;;;;;12.80;5.22;;;32.60;44.70;;;;;;5006234;28;20217;-91
2022/07/13 14:36:10;;;;;;;9.48;4.05;;;32.60;44.60;;;;;;5008952;28;20206;-91
2022/07/13 14:38:38;;;;;;;7.55;3.90;;;32.60;44.80;;;;;;5009615;28;20213;-91
2022/07/13 14:41:05;;;;;;;6.30;3.42;;;32.50;44.80;;;;;;5009625;28;20229;-92
2022/07/13 14:43:34;;;;;;;12.80;6.07;;;32.50;44.70;;;;;;5010646;28;20218;-92
2022/07/13 14:46:01;;;;;;;8.50;3.40;;;32.40;44.90;;;;;;5009729;28;20208;-91
2022/07/13 14:48:29;;;;;;;11.45;5.80;;;32.30;44.80;;;;;;5008697;28;20248;-91
2022/07/13 14:50:57;;;;;;;9.18;4.30;;;32.30;44.90;;;;;;5006694;28;20795;-91